Al-Nwaiseeb, Kuwait

1:09 PM AST on October 23, 2014 (GMT +0300)
Kuwait International | Change Station
CLOSE
Current Station
Airport
Location: Kuwait,
Elevation: 180 ft
Nearby Weather Stations

Elev 180 ft 29.22 °N, 47.98 °E | Updated 1 hour ago

Clear
Clear
82 °F
Feels Like 82 °F
N
13
Wind Variable Wind from North

Today
High -- | Low -- °F
--% Chance of Precip.
Yesterday
High -- | Low -- °F
Precip. -- in
5:51 AM 5:08 PM
Waning Crescent, 0% visible
Pressure 30.06 in
Visibility -9999.0 miles
Clouds
Dew Point 45 °F
Humidity 26%
Rainfall 0.00 in
Snow Depth Not available.
UV Not available.
Pollen Not available.
Air Quality Not available.
Flu Activity Not available.
METAR OKBK 230900Z 35011KT CAVOK 28/07 Q1018 NOSIG

More Conditions Fewer Conditions

Pressure 30.06 in
Visibility -9999.0 miles
Clouds
Dew Point 45 °F
Humidity 26%
Rainfall 0.00 in
Snow Depth Not available.
UV Not available.
Pollen Not available.
Air Quality Not available.
Flu Activity Not available.
METAR OKBK 230900Z 35011KT CAVOK 28/07 Q1018 NOSIG

More Conditions Fewer Conditions

10-Day Weather Forecast

Almanac

Astronomy

Oct. 23, 2014 Rise Set
Actual Time 5:51 AM AST 5:08 PM AST
Civil Twilight 5:27 AM AST 5:32 PM AST
Nautical Twilight 5:00 AM AST 6:00 PM AST
Astronomical Twilight 4:32 AM AST 6:27 PM AST
Moon 5:12 AM AST 4:55 PM AST
Length of Visible Light 12h 05m
Length of Day
11h 17m
Tomorrow will be 1m 34s shorter.
Waning Crescent, 0% of the Moon is Illuminated
Today
Waning Crescent
Oct 23
New
Oct 30
First Quarter
Nov 6
Full
Nov 14
Last Quarter

Yesterday's Extremes

Country Highs Country Lows

Community

WunderPhotos

Upload Photos

1,764,201 photos uploaded!

Nearby

Snow Depth

Not available.

Earthquake Activity

City Distance Mag. Time & Date
No recent earthquake activity has been reported nearby.
Minimum magnitude displayed is 2.5.

Coastal Water Temperatures

Place Temperature
No Stations Reporting

Nearby Weather Stations